Time;durP1;ratioP1;P1;durP2;ratioP2;P2;SDS_P1;SDS_P2;PMS_P1;PMS_P2;Temp;Humidity;BMP_temperature;BMP_pressure;BME280_temperature;BME280_humidity;BME280_pressure;Samples;Min_cycle;Max_cycle;Signal;HPM_P1;HPM_P2
2022/01/27 00:01:45;;;;;;;54.85;28.38;;;;;;;-7.21;100.00;101251.02;1681125;83;21050;-90
2022/01/27 00:04:23;;;;;;;53.98;28.17;;;;;;;-7.14;100.00;101251.92;1681252;84;21490;-90
2022/01/27 00:06:47;;;;;;;57.23;29.02;;;;;;;-7.07;100.00;101255.37;1681403;84;28158;-90
2022/01/27 00:09:20;;;;;;;68.90;32.95;;;;;;;-7.01;100.00;101251.61;1683661;84;21141;-89
2022/01/27 00:11:45;;;;;;;62.45;30.05;;;;;;;-6.95;100.00;101257.14;1682439;84;21333;-90
2022/01/27 00:14:13;;;;;;;54.75;29.30;;;;;;;-6.95;100.00;101259.25;1681205;83;21306;-90
2022/01/27 00:16:52;;;;;;;55.45;28.65;;;;;;;-6.97;100.00;101257.14;1668827;84;21066;-90
2022/01/27 00:19:11;;;;;;;59.48;31.55;;;;;;;-7.00;100.00;101250.77;1681301;84;21051;-90
2022/01/27 00:21:38;;;;;;;59.53;29.75;;;;;;;-7.06;100.00;101254.53;1683590;84;21050;-90
2022/01/27 00:24:06;;;;;;;53.90;28.73;;;;;;;-7.11;100.00;101258.69;1683777;83;21154;-91
2022/01/27 00:26:33;;;;;;;56.23;30.48;;;;;;;-7.15;100.00;101254.02;1684175;85;21565;-90
2022/01/27 00:29:00;;;;;;;53.08;28.10;;;;;;;-7.18;100.00;101253.59;1668518;85;21694;-91
2022/01/27 00:31:27;;;;;;;56.02;28.87;;;;;;;-7.20;100.00;101250.61;1668418;84;21058;-92
2022/01/27 00:33:55;;;;;;;53.50;30.27;;;;;;;-7.22;100.00;101245.95;1668630;84;21671;-93
2022/01/27 00:36:22;;;;;;;59.30;30.97;;;;;;;-7.25;100.00;101249.31;1668834;84;21671;-91
2022/01/27 00:38:49;;;;;;;64.25;32.95;;;;;;;-7.27;100.00;101246.34;1668699;84;21163;-91
2022/01/27 00:41:22;;;;;;;62.73;31.05;;;;;;;-7.32;100.00;101250.92;1683701;85;21197;-91
2022/01/27 00:43:47;;;;;;;57.00;30.60;;;;;;;-7.36;100.00;101252.14;1682931;84;21015;-91
2022/01/27 00:46:16;;;;;;;54.42;27.93;;;;;;;-7.46;100.00;101247.03;1683850;84;21027;-91
2022/01/27 00:48:48;;;;;;;51.58;27.73;;;;;;;-7.52;100.00;101243.16;1681445;83;21158;-91
2022/01/27 00:51:21;;;;;;;59.23;28.25;;;;;;;-7.56;100.00;101239.31;1668748;84;21694;-90
2022/01/27 00:54:33;;;;;;;53.10;27.30;;;;;;;-7.66;100.00;101227.86;1680064;83;21083;-90
2022/01/27 00:56:35;;;;;;;57.08;29.18;;;;;;;-7.80;100.00;101226.84;1663748;83;21031;-89
2022/01/27 00:59:23;;;;;;;58.33;27.67;;;;;;;-7.96;100.00;101227.95;1668198;84;21271;-88
2022/01/27 01:01:39;;;;;;;57.13;29.15;;;;;;;-8.06;100.00;101227.83;1692134;84;21156;-90
2022/01/27 01:04:05;;;;;;;59.23;30.15;;;;;;;-8.16;100.00;101228.14;1672804;84;21104;-90
2022/01/27 01:06:45;;;;;;;55.55;27.48;;;;;;;-8.20;100.00;101236.11;1691445;84;21045;-90
2022/01/27 01:14:38;;;;;;;56.50;27.42;;;;;;;-8.22;100.00;101244.50;1692602;84;21063;-91
2022/01/27 01:29:24;;;;;;;60.38;27.07;;;;;;;-8.25;100.00;101235.18;1675832;85;21050;-90
2022/01/27 01:30:20;;;;;;;56.30;26.80;;;;;;;-8.31;100.00;101235.11;1675557;84;21161;-91
2022/01/27 01:35:07;;;;;;;55.40;28.10;;;;;;;-8.31;100.00;101238.51;1677161;85;21021;-91
2022/01/27 01:37:39;;;;;;;59.30;26.60;;;;;;;-8.32;100.00;101234.28;1691024;83;21038;-90
2022/01/27 01:40:10;;;;;;;57.90;28.45;;;;;;;-8.31;100.00;101233.84;1689387;83;21230;-91
2022/01/27 01:42:40;;;;;;;60.63;28.17;;;;;;;-8.32;100.00;101239.33;1680852;84;21584;-91
2022/01/27 01:45:11;;;;;;;55.28;26.82;;;;;;;-8.32;100.00;101239.33;1680832;84;21544;-90
2022/01/27 01:47:39;;;;;;;55.52;26.20;;;;;;;-8.33;100.00;101238.89;1682898;85;21011;-90
2022/01/27 01:50:09;;;;;;;51.58;25.23;;;;;;;-8.31;100.00;101242.69;1674994;85;21583;-91
2022/01/27 01:52:38;;;;;;;49.45;26.20;;;;;;;-8.28;100.00;101243.58;1690569;83;21181;-89
2022/01/27 01:55:07;;;;;;;49.75;24.55;;;;;;;-8.20;100.00;101244.09;1669574;84;21147;-90
2022/01/27 01:57:37;;;;;;;43.78;23.07;;;;;;;-8.14;100.00;101246.28;1691787;84;21047;-92
2022/01/27 02:00:09;;;;;;;46.73;24.60;;;;;;;-8.07;100.00;101242.16;1675285;84;21022;-91
2022/01/27 02:02:40;;;;;;;43.87;22.10;;;;;;;-7.98;100.00;101244.80;1698701;84;21104;-90
2022/01/27 02:05:09;;;;;;;45.05;25.10;;;;;;;-7.88;100.00;101245.75;1675763;85;21197;-92
2022/01/27 02:07:56;;;;;;;45.33;23.90;;;;;;;-7.79;100.00;101247.52;1694293;84;21011;-90
2022/01/27 02:10:34;;;;;;;44.88;23.07;;;;;;;-7.70;100.00;101250.14;1664796;85;21520;-90
2022/01/27 02:18:18;;;;;;;53.42;27.58;;;;;;;-7.56;100.00;101254.09;1675634;84;21919;-89
2022/01/27 02:20:45;;;;;;;46.00;25.55;;;;;;;-7.58;100.00;101258.70;1680570;84;21106;-92
2022/01/27 02:23:13;;;;;;;46.13;24.63;;;;;;;-7.61;100.00;101257.83;1689016;84;21168;-90
2022/01/27 02:25:40;;;;;;;45.08;25.92;;;;;;;-7.65;100.00;101256.09;1696838;83;21050;-93
2022/01/27 02:28:07;;;;;;;49.58;26.40;;;;;;;-7.67;100.00;101259.05;1673277;84;21026;-91
2022/01/27 02:30:34;;;;;;;43.68;24.25;;;;;;;-7.68;100.00;101266.20;1673828;83;21095;-90
2022/01/27 02:33:02;;;;;;;50.88;26.45;;;;;;;-7.69;100.00;101261.96;1688690;84;21121;-91
2022/01/27 02:35:32;;;;;;;56.85;28.02;;;;;;;-7.69;100.00;101261.96;1681703;83;21035;-91
2022/01/27 02:37:59;;;;;;;54.63;28.45;;;;;;;-7.65;100.00;101260.31;1682550;83;21094;-90
2022/01/27 02:40:36;;;;;;;48.00;26.20;;;;;;;-7.63;100.00;101260.76;1695328;83;21483;-89
2022/01/27 02:43:06;;;;;;;49.13;26.30;;;;;;;-7.61;100.00;101259.09;1695989;84;21216;-91
2022/01/27 02:46:02;;;;;;;55.85;26.90;;;;;;;-7.58;100.00;101259.54;1675394;84;21034;-92
2022/01/27 02:48:29;;;;;;;52.62;25.23;;;;;;;-7.58;100.00;101258.28;1689555;83;21587;-90
2022/01/27 02:50:57;;;;;;;60.15;28.98;;;;;;;-7.59;100.00;101258.27;1679444;84;21525;-91
2022/01/27 02:53:24;;;;;;;49.75;25.95;;;;;;;-7.63;100.00;101258.22;1681887;84;21200;-91
2022/01/27 02:55:51;;;;;;;55.75;27.42;;;;;;;-7.68;100.00;101259.00;1685188;84;21829;-91
2022/01/27 02:58:18;;;;;;;55.17;25.43;;;;;;;-7.74;100.00;101269.93;1686446;84;21715;-93
2022/01/27 03:00:45;;;;;;;60.80;31.37;;;;;;;-7.79;100.00;101270.27;1666442;85;21102;-90
2022/01/27 03:03:12;;;;;;;57.10;30.40;;;;;;;-7.80;100.00;101269.84;1685107;84;21055;-90
2022/01/27 03:05:39;;;;;;;53.13;27.70;;;;;;;-7.80;100.00;101271.10;1667883;84;21054;-92
2022/01/27 03:08:06;;;;;;;54.30;27.45;;;;;;;-7.78;100.00;101271.98;1666897;85;21106;-91
2022/01/27 03:10:42;;;;;;;49.33;25.12;;;;;;;-7.76;100.00;101271.59;1684781;84;21150;-92
2022/01/27 03:13:09;;;;;;;52.15;27.70;;;;;;;-7.74;100.00;101274.13;1677816;84;21592;-92
2022/01/27 03:15:36;;;;;;;56.15;27.82;;;;;;;-7.72;100.00;101276.26;1684011;84;21050;-92
2022/01/27 03:18:04;;;;;;;47.60;25.35;;;;;;;-7.71;100.00;101280.06;1683223;84;21065;-91
2022/01/27 03:20:33;;;;;;;47.88;24.30;;;;;;;-7.70;100.00;101274.17;1682690;84;21973;-92
2022/01/27 03:23:02;;;;;;;50.25;26.55;;;;;;;-7.70;100.00;101275.44;1682685;84;21063;-92
2022/01/27 03:25:29;;;;;;;47.70;25.77;;;;;;;-7.68;100.00;101280.50;1667700;84;21115;-91
2022/01/27 03:27:56;;;;;;;56.30;29.10;;;;;;;-7.69;100.00;101273.34;1666839;84;21051;-91
2022/01/27 03:30:23;;;;;;;51.45;28.60;;;;;;;-7.68;100.00;101275.05;1685386;84;21508;-92
2022/01/27 03:32:51;;;;;;;48.00;26.62;;;;;;;-7.67;100.00;101275.48;1682836;84;21953;-92
2022/01/27 03:35:18;;;;;;;46.45;25.97;;;;;;;-7.68;100.00;101282.64;1686460;84;21048;-90
2022/01/27 03:37:47;;;;;;;53.30;28.67;;;;;;;-7.69;100.00;101279.67;1686777;84;21106;-92
2022/01/27 03:40:14;;;;;;;52.98;27.58;;;;;;;-7.67;100.00;101278.02;1682876;84;21043;-91
2022/01/27 03:42:50;;;;;;;45.28;24.40;;;;;;;-7.68;100.00;101280.11;1686343;84;21560;-93
2022/01/27 03:45:12;;;;;;;47.00;24.63;;;;;;;-7.68;100.00;101279.23;1683480;84;21003;-92
2022/01/27 03:47:40;;;;;;;44.55;24.25;;;;;;;-7.70;100.00;101277.97;1682087;83;21082;-91
2022/01/27 03:50:08;;;;;;;46.45;23.32;;;;;;;-7.71;100.00;101285.12;1667430;84;21073;-92
2022/01/27 03:52:35;;;;;;;52.45;26.68;;;;;;;-7.71;100.00;101279.22;1666295;85;21065;-92
2022/01/27 03:55:02;;;;;;;48.02;25.72;;;;;;;-7.74;100.00;101279.18;1683432;84;21067;-92
2022/01/27 03:57:29;;;;;;;46.68;23.22;;;;;;;-7.76;100.00;101286.76;1666370;84;21910;-92
2022/01/27 03:59:56;;;;;;;47.20;24.12;;;;;;;-7.77;100.00;101285.06;1667839;84;22299;-91
2022/01/27 04:02:23;;;;;;;49.45;25.92;;;;;;;-7.79;100.00;101276.20;1685881;84;21133;-92
2022/01/27 04:04:51;;;;;;;42.23;22.98;;;;;;;-7.80;100.00;101280.81;1667866;84;21623;-92
2022/01/27 04:07:21;;;;;;;45.25;23.92;;;;;;;-7.78;100.00;101287.15;1675082;83;21678;-90
2022/01/27 04:09:48;;;;;;;46.55;24.35;;;;;;;-7.79;100.00;101290.50;1673198;83;21770;-91
2022/01/27 04:12:15;;;;;;;49.85;25.40;;;;;;;-7.82;100.00;101288.80;1684752;84;21065;-90
2022/01/27 04:14:44;;;;;;;42.90;21.55;;;;;;;-7.83;100.00;101284.99;1669854;84;21078;-90
2022/01/27 04:17:11;;;;;;;52.93;28.32;;;;;;;-7.84;100.00;101292.14;1676132;84;21095;-91
2022/01/27 04:19:38;;;;;;;52.85;26.77;;;;;;;-7.88;100.00;101291.66;1693697;83;21859;-90
2022/01/27 04:22:05;;;;;;;53.15;28.30;;;;;;;-7.93;100.00;101287.41;1696494;83;21787;-90
2022/01/27 04:24:33;;;;;;;51.18;26.60;;;;;;;-7.96;100.00;101289.89;1687307;82;21372;-91
2022/01/27 04:27:16;;;;;;;56.30;29.52;;;;;;;-8.02;100.00;101280.14;1665995;84;21674;-91
2022/01/27 04:29:35;;;;;;;59.48;27.80;;;;;;;-8.05;100.00;101284.72;1677082;83;21055;-91
2022/01/27 04:32:01;;;;;;;60.92;30.85;;;;;;;-8.07;100.00;101286.40;1678372;84;21063;-90
2022/01/27 04:34:31;;;;;;;57.25;29.02;;;;;;;-8.11;100.00;101289.70;1687031;84;21867;-89
2022/01/27 04:36:59;;;;;;;63.28;31.87;;;;;;;-8.12;100.00;101289.27;1663367;84;21422;-91
2022/01/27 04:39:42;;;;;;;54.27;26.12;;;;;;;-8.16;100.00;101287.11;1688901;83;21575;-90
2022/01/27 04:42:16;;;;;;;59.95;29.42;;;;;;;-8.15;100.00;101288.81;1677931;84;21768;-92
2022/01/27 04:44:44;;;;;;;50.10;26.90;;;;;;;-8.14;100.00;101285.46;1676536;84;21643;-90
2022/01/27 04:47:17;;;;;;;56.35;25.43;;;;;;;-8.12;100.00;101301.50;1677875;84;21126;-82
2022/01/27 04:49:36;;;;;;;49.42;23.90;;;;;;;-8.09;100.00;101307.00;1662709;85;21083;-88
2022/01/27 04:52:04;;;;;;;52.30;26.17;;;;;;;-7.93;100.00;101307.64;1641711;86;21085;-90
2022/01/27 04:54:42;;;;;;;54.42;28.02;;;;;;;-7.73;100.00;101303.21;1619425;86;22268;-92
2022/01/27 04:57:05;;;;;;;56.53;29.35;;;;;;;-7.63;100.00;101313.88;1636798;87;21548;-86
2022/01/27 04:59:38;;;;;;;52.95;27.80;;;;;;;-7.59;100.00;101313.92;1639215;86;21161;-94
2022/01/27 05:02:06;;;;;;;64.10;31.52;;;;;;;-7.62;100.00;101307.98;1639819;85;21047;-91
2022/01/27 05:04:34;;;;;;;64.15;26.95;;;;;;;-7.64;100.00;101312.17;1629415;87;21106;-95
2022/01/27 05:07:00;;;;;;;59.20;29.42;;;;;;;-7.51;100.00;101314.42;1613419;87;21088;-92
2022/01/27 05:09:27;;;;;;;55.45;28.98;;;;;;;-7.22;100.00;101313.89;1615401;86;21117;-92
2022/01/27 05:12:12;;;;;;;57.27;29.67;;;;;;;-7.18;100.00;101318.56;1639697;86;21820;-92
2022/01/27 05:14:25;;;;;;;58.15;29.30;;;;;;;-7.26;100.00;101313.41;1635762;85;20984;-90
2022/01/27 05:16:54;;;;;;;58.10;28.62;;;;;;;-7.36;100.00;101315.02;1639342;86;21079;-91
2022/01/27 05:19:21;;;;;;;53.25;26.70;;;;;;;-7.42;100.00;101320.02;1639264;86;21110;-90
2022/01/27 05:21:49;;;;;;;58.55;29.92;;;;;;;-7.48;100.00;101328.79;1626810;86;21116;-92
2022/01/27 05:24:17;;;;;;;66.53;31.42;;;;;;;-7.51;100.00;101333.83;1597567;87;21797;-93
2022/01/27 05:26:45;;;;;;;60.85;31.50;;;;;;;-7.55;100.00;101339.67;1621282;87;21550;-91
2022/01/27 05:29:12;;;;;;;53.85;26.12;;;;;;;-7.59;100.00;101335.43;1571254;88;21061;-93
2022/01/27 05:31:43;;;;;;;64.27;31.73;;;;;;;-7.64;100.00;101346.33;1613096;87;21044;-93
2022/01/27 05:34:10;;;;;;;;;;;;;;;-7.66;100.00;101345.48;1595324;88;21068;-93
2022/01/27 05:36:37;;;;;;;61.08;29.57;;;;;;;-7.67;100.00;101347.58;1612947;87;21146;-95
2022/01/27 05:39:05;;;;;;;66.85;32.35;;;;;;;-7.65;100.00;101356.44;1592897;88;22768;-93
2022/01/27 05:41:32;;;;;;;67.80;32.78;;;;;;;-7.69;100.00;101349.23;1612912;88;21033;-93
2022/01/27 05:43:59;;;;;;;72.82;35.83;;;;;;;-7.78;100.00;101351.23;1613169;88;21754;-93
2022/01/27 05:46:27;;;;;;;75.12;35.73;;;;;;;-7.85;100.00;101350.70;1613175;88;21088;-92
2022/01/27 05:48:54;;;;;;;71.62;36.48;;;;;;;-7.93;100.00;101347.26;1613042;88;21165;-95
2022/01/27 05:51:21;;;;;;;62.62;33.28;;;;;;;-8.00;100.00;101352.63;1631777;87;21144;-94
2022/01/27 05:53:48;;;;;;;63.08;31.75;;;;;;;-8.02;100.00;101354.72;1593816;88;21076;-94
2022/01/27 05:56:15;;;;;;;72.50;34.60;;;;;;;-7.99;100.00;101351.81;1618195;85;21031;-94
2022/01/27 05:58:42;;;;;;;59.93;30.85;;;;;;;-7.91;100.00;101355.69;1665789;85;21120;-94
2022/01/27 06:01:10;;;;;;;55.30;29.48;;;;;;;-7.83;100.00;101355.80;1623084;87;21122;-93
2022/01/27 06:03:37;;;;;;;64.27;34.00;;;;;;;-7.74;100.00;101353.39;1662473;84;21082;-95
2022/01/27 06:06:04;;;;;;;69.90;34.23;;;;;;;-7.66;100.00;101348.41;1643342;85;21109;-92
2022/01/27 06:08:32;;;;;;;61.85;31.37;;;;;;;-7.58;100.00;101349.78;1643450;85;21055;-94
2022/01/27 06:11:03;;;;;;;59.23;31.05;;;;;;;-7.50;100.00;101349.45;1643343;85;21136;-92
2022/01/27 06:13:32;;;;;;;58.70;30.48;;;;;;;-7.41;100.00;101349.95;1661039;84;21071;-94
2022/01/27 06:15:58;;;;;;;58.40;30.27;;;;;;;-7.33;100.00;101350.45;1691472;83;21076;-95
2022/01/27 06:18:25;;;;;;;59.77;30.88;;;;;;;-7.23;100.00;101346.36;1691991;84;21915;-91
2022/01/27 06:20:55;;;;;;;64.85;30.05;;;;;;;-7.13;100.00;101346.03;1680389;83;21013;-85
2022/01/27 06:23:21;;;;;;;66.80;34.00;;;;;;;-7.06;100.00;101346.95;1682500;83;21130;-89
2022/01/27 06:25:49;;;;;;;66.75;34.48;;;;;;;-6.89;100.00;101345.39;1675613;83;21157;-94
2022/01/27 06:28:16;;;;;;;65.17;34.13;;;;;;;-6.77;100.00;101350.98;1648529;82;21007;-94
2022/01/27 06:30:44;;;;;;;63.08;35.35;;;;;;;-6.69;100.00;101345.56;1732685;82;21058;-94
2022/01/27 06:33:12;;;;;;;58.52;32.50;;;;;;;-6.62;100.00;101340.56;1728961;82;21038;-91
2022/01/27 06:35:39;;;;;;;63.70;33.55;;;;;;;-6.55;100.00;101341.87;1722526;82;21069;-92
2022/01/27 06:38:06;;;;;;;65.05;34.88;;;;;;;-6.48;100.00;101342.77;1682001;83;21131;-90
2022/01/27 06:40:34;;;;;;;63.13;33.33;;;;;;;-6.42;100.00;101337.73;1679020;84;21648;-90
2022/01/27 06:43:01;;;;;;;64.85;34.23;;;;;;;-6.34;100.00;101339.91;1676668;84;21602;-92
2022/01/27 06:45:28;;;;;;;62.33;32.08;;;;;;;-6.24;100.00;101338.27;1630841;87;21336;-91
2022/01/27 06:47:56;;;;;;;63.55;34.40;;;;;;;-6.15;100.00;101340.43;1688218;84;21856;-92
2022/01/27 06:50:23;;;;;;;66.28;34.75;;;;;;;-6.04;100.00;101336.28;1691007;83;21141;-90
2022/01/27 06:52:50;;;;;;;56.92;32.53;;;;;;;-5.94;100.00;101333.33;1702343;82;21023;-91
2022/01/27 06:55:20;;;;;;;67.40;35.98;;;;;;;-5.83;100.00;101340.98;1690533;84;21626;-92
2022/01/27 06:57:47;;;;;;;67.85;37.23;;;;;;;-5.75;100.00;101338.92;1667854;84;21121;-92
2022/01/27 07:00:15;;;;;;;67.70;37.10;;;;;;;-5.65;100.00;101339.80;1671257;85;21086;-95
2022/01/27 07:02:45;;;;;;;67.32;37.63;;;;;;;-5.57;100.00;101334.33;1677295;83;21793;-95
2022/01/27 07:05:15;;;;;;;65.47;36.35;;;;;;;-5.46;100.00;101332.25;1680053;85;26416;-92
2022/01/27 07:07:42;;;;;;;65.37;36.85;;;;;;;-5.34;100.00;101325.09;1682806;84;21103;-93
2022/01/27 07:10:11;;;;;;;67.53;35.40;;;;;;;-5.25;100.00;101325.11;1681476;83;21685;-92
2022/01/27 07:12:42;;;;;;;63.23;36.88;;;;;;;-5.14;100.00;101331.47;1695373;84;21366;-91
2022/01/27 07:15:10;;;;;;;;;;;;;;;-5.03;100.00;101331.05;1698377;83;21103;-95
2022/01/27 07:17:39;;;;;;;54.35;31.15;;;;;;;-4.94;100.00;101329.79;1696047;83;20221;-92
2022/01/27 07:20:08;;;;;;;59.83;34.75;;;;;;;-4.88;100.00;101325.14;1651413;84;21074;-94
2022/01/27 07:22:37;;;;;;;;;;;;;;;-4.80;100.00;101334.02;1698010;84;21060;-94
2022/01/27 07:25:07;;;;;;;60.25;32.60;;;;;;;-4.70;100.00;101324.72;1696063;83;20182;-93
2022/01/27 07:27:35;;;;;;;58.10;32.45;;;;;;;-4.63;100.00;101328.95;1695826;84;21159;-94
2022/01/27 07:30:04;;;;;;;62.15;35.92;;;;;;;-4.57;100.00;101332.75;1676144;84;21561;-93
2022/01/27 07:32:31;;;;;;;60.70;34.13;;;;;;;-4.50;100.00;101339.52;1696173;83;21059;-89
2022/01/27 07:35:00;;;;;;;67.53;37.65;;;;;;;-4.48;100.00;101345.87;1676103;84;21080;-91
2022/01/27 07:37:28;;;;;;;66.07;37.20;;;;;;;-4.47;100.00;101343.34;1695635;84;21111;-89
2022/01/27 07:39:55;;;;;;;65.95;37.85;;;;;;;-4.37;100.00;101348.42;1696019;83;21155;-89
2022/01/27 07:42:23;;;;;;;68.07;38.13;;;;;;;-4.32;100.00;101345.44;1695699;84;21112;-89
2022/01/27 07:44:51;;;;;;;62.10;36.30;;;;;;;-4.28;100.00;101339.48;1675400;84;21100;-90
2022/01/27 07:47:18;;;;;;;59.35;32.67;;;;;;;-4.27;100.00;101347.53;1675874;84;21538;-89
2022/01/27 07:49:48;;;;;;;58.87;35.05;;;;;;;-4.22;100.00;101343.30;1666144;84;21308;-90
2022/01/27 07:52:18;;;;;;;56.77;34.03;;;;;;;-4.16;100.00;101343.28;1668503;84;21193;-90
2022/01/27 07:54:45;;;;;;;55.23;32.45;;;;;;;-4.13;100.00;101346.24;1667696;84;21082;-90
2022/01/27 07:57:12;;;;;;;53.02;32.55;;;;;;;-4.06;100.00;101351.73;1671008;85;21129;-89
2022/01/27 07:59:40;;;;;;;55.98;31.90;;;;;;;-4.00;100.00;101356.80;1672480;85;21034;-91
2022/01/27 08:02:08;;;;;;;59.70;32.28;;;;;;;-4.01;100.00;101354.27;1672977;85;21041;-91
2022/01/27 08:04:36;;;;;;;54.60;30.90;;;;;;;-4.00;100.00;101361.05;1673108;85;21271;-90
2022/01/27 08:07:04;;;;;;;57.93;34.88;;;;;;;-4.00;100.00;101357.23;1672734;84;21921;-90
2022/01/27 08:09:32;;;;;;;59.03;34.92;;;;;;;-4.02;100.00;101358.52;1698809;83;21107;-91
2022/01/27 08:11:59;;;;;;;57.85;33.05;;;;;;;-4.00;100.00;101361.05;1676166;84;21094;-92
2022/01/27 08:14:27;;;;;;;55.17;31.93;;;;;;;-3.94;100.00;101362.74;1701272;83;20997;-93
2022/01/27 08:16:55;;;;;;;59.38;33.18;;;;;;;-3.88;100.00;101363.55;1701453;83;21176;-90
2022/01/27 08:19:22;;;;;;;61.90;36.10;;;;;;;-3.86;100.00;101358.03;1675388;84;21040;-91
2022/01/27 08:21:49;;;;;;;58.55;35.10;;;;;;;-3.88;100.00;101355.91;1670932;84;22336;-91
2022/01/27 08:24:18;;;;;;;59.15;36.50;;;;;;;-3.91;100.00;101355.08;1675310;84;21112;-91
2022/01/27 08:26:47;;;;;;;58.40;33.92;;;;;;;-3.97;100.00;101353.42;1693498;83;21587;-92
2022/01/27 08:29:26;;;;;;;56.23;32.78;;;;;;;-4.02;100.00;101352.57;1699356;83;21151;-92
2022/01/27 08:34:36;;;;;;;51.37;29.40;;;;;;;-4.06;100.00;101345.81;1717625;82;20999;-93
2022/01/27 08:37:02;;;;;;;48.38;29.05;;;;;;;-4.04;100.00;101351.72;1729331;82;21524;-93
2022/01/27 08:39:30;;;;;;;55.25;32.23;;;;;;;-4.04;100.00;101355.53;1730699;82;21117;-92
2022/01/27 08:41:57;;;;;;;51.35;30.90;;;;;;;-4.13;100.00;101354.70;1730801;82;21943;-92
2022/01/27 08:44:25;;;;;;;57.27;33.15;;;;;;;-4.21;100.00;101356.86;1730315;82;21538;-93
2022/01/27 08:46:52;;;;;;;57.17;34.73;;;;;;;-4.19;100.00;101349.64;1730691;82;21074;-91
2022/01/27 08:49:23;;;;;;;65.00;35.30;;;;;;;-4.08;100.00;101347.51;1730003;82;21049;-92
2022/01/27 08:51:49;;;;;;;58.95;34.43;;;;;;;-4.01;100.00;101353.86;1730611;82;21608;-92
2022/01/27 08:54:16;;;;;;;52.78;30.10;;;;;;;-3.98;100.00;101349.19;1680450;82;21151;-93
2022/01/27 08:56:43;;;;;;;58.35;32.25;;;;;;;-3.91;100.00;101349.58;1703825;82;21026;-92
2022/01/27 08:59:11;;;;;;;66.30;34.67;;;;;;;-3.88;100.00;101349.55;1704327;82;21030;-93
2022/01/27 09:01:40;;;;;;;64.32;34.40;;;;;;;-4.01;100.00;101349.18;1704114;82;21094;-92
2022/01/27 09:04:08;;;;;;;63.13;35.25;;;;;;;-4.09;100.00;101344.53;1686234;83;21093;-93
2022/01/27 09:06:37;;;;;;;60.98;33.98;;;;;;;-4.14;100.00;101342.87;1667718;84;21058;-92
2022/01/27 09:09:05;;;;;;;56.90;31.15;;;;;;;-4.18;100.00;101339.05;1667569;85;21098;-94
2022/01/27 09:11:33;;;;;;;57.55;32.38;;;;;;;-4.14;100.00;101339.45;1683433;83;21019;-91
2022/01/27 09:14:04;;;;;;;63.28;34.53;;;;;;;-4.10;100.00;101329.71;1684159;83;21134;-92
2022/01/27 09:16:32;;;;;;;61.50;34.63;;;;;;;-3.97;100.00;101324.16;1668847;84;21521;-93
2022/01/27 09:19:01;;;;;;;61.02;33.70;;;;;;;-3.83;100.00;101331.31;1648250;84;21427;-95
2022/01/27 09:21:40;;;;;;;61.98;34.85;;;;;;;-3.81;100.00;101334.70;1673588;83;21382;-94
2022/01/27 09:23:58;;;;;;;56.08;32.42;;;;;;;-3.85;100.00;101338.54;1667497;85;21106;-93
2022/01/27 09:26:43;;;;;;;56.98;32.17;;;;;;;-3.91;100.00;101336.86;1669664;83;21061;-93
2022/01/27 09:29:02;;;;;;;52.08;31.02;;;;;;;-4.01;100.00;101335.19;1668194;85;21118;-91
2022/01/27 09:31:30;;;;;;;57.40;32.67;;;;;;;-4.04;100.00;101337.32;1667692;85;21178;-91
2022/01/27 09:34:00;;;;;;;63.80;36.63;;;;;;;-4.03;100.00;101334.34;1669339;83;21094;-92
2022/01/27 09:36:30;;;;;;;69.97;37.20;;;;;;;-4.03;100.00;101325.43;1676190;84;21588;-92
2022/01/27 09:38:58;;;;;;;60.65;34.35;;;;;;;-4.07;100.00;101328.84;1695672;84;21560;-92
2022/01/27 09:41:27;;;;;;;58.08;29.70;;;;;;;-4.06;100.00;101328.84;1695841;83;21034;-90
2022/01/27 09:43:55;;;;;;;55.98;31.10;;;;;;;-4.04;100.00;101323.33;1695732;84;21161;-92
2022/01/27 09:46:25;;;;;;;53.10;30.08;;;;;;;-4.06;100.00;101325.02;1695954;84;21027;-91
2022/01/27 09:48:54;;;;;;;56.87;32.13;;;;;;;-4.07;100.00;101322.05;1696307;84;21081;-91
2022/01/27 09:51:26;;;;;;;59.58;31.85;;;;;;;-4.02;100.00;101318.22;1699412;84;21062;-92
2022/01/27 09:53:55;;;;;;;56.20;32.42;;;;;;;-3.94;100.00;101310.13;1685238;84;21134;-93
2022/01/27 09:56:24;;;;;;;57.25;32.63;;;;;;;-3.81;100.00;101315.62;1695899;84;21526;-91
2022/01/27 09:58:51;;;;;;;49.05;28.75;;;;;;;-3.69;100.00;101316.40;1695460;83;21109;-92
2022/01/27 10:01:19;;;;;;;51.60;29.27;;;;;;;-3.61;100.00;101310.84;1680303;83;21521;-91
2022/01/27 10:04:04;;;;;;;51.13;29.40;;;;;;;-3.63;100.00;101308.72;1675614;83;21044;-90
2022/01/27 10:06:33;;;;;;;51.08;28.80;;;;;;;-3.59;100.00;101314.23;1675803;84;22045;-89
2022/01/27 10:09:29;;;;;;;51.18;28.83;;;;;;;-3.49;100.00;101313.75;1672988;84;21052;-91
2022/01/27 10:11:52;;;;;;;50.92;28.87;;;;;;;-3.42;100.00;101310.31;1697846;82;21132;-91
2022/01/27 10:14:37;;;;;;;50.33;27.60;;;;;;;-3.41;100.00;101309.91;1670763;84;21058;-91
2022/01/27 10:17:12;;;;;;;53.28;29.98;;;;;;;-3.35;100.00;101304.77;1707823;82;21548;-91
2022/01/27 10:19:40;;;;;;;53.83;30.70;;;;;;;-3.24;100.00;101316.16;1673326;85;21054;-92
2022/01/27 10:22:15;;;;;;;49.05;28.30;;;;;;;-3.13;100.00;101313.53;1707907;82;21138;-92
2022/01/27 10:24:43;;;;;;;46.40;24.92;;;;;;;-3.11;100.00;101311.38;1671613;84;21497;-91
2022/01/27 10:30:52;;;;;;;52.33;27.93;;;;;;;-3.31;100.00;101305.15;1656275;85;21019;-90
2022/01/27 10:32:47;;;;;;;53.20;29.40;;;;;;;-3.37;100.00;101312.42;1703357;82;21068;-92
2022/01/27 10:35:18;;;;;;;48.68;27.50;;;;;;;-3.40;100.00;101309.02;1652233;85;21243;-91
2022/01/27 10:38:02;;;;;;;51.20;28.75;;;;;;;-3.39;100.00;101305.63;1686721;84;21085;-91
2022/01/27 10:40:37;;;;;;;54.80;29.30;;;;;;;-3.41;100.00;101300.98;1673321;84;21046;-92
2022/01/27 10:43:16;;;;;;;57.73;30.37;;;;;;;-3.42;100.00;101298.85;1707198;83;21030;-92
2022/01/27 10:46:13;;;;;;;57.33;31.40;;;;;;;-3.46;100.00;101298.47;1673314;84;21125;-93
2022/01/27 10:48:51;;;;;;;56.80;30.52;;;;;;;-3.49;100.00;101298.06;1683891;83;21851;-92
2022/01/27 10:51:23;;;;;;;53.55;31.80;;;;;;;-3.58;100.00;101305.75;1708184;82;21034;-95
2022/01/27 10:53:59;;;;;;;52.95;28.57;;;;;;;-3.61;100.00;101301.09;1650725;85;21279;-91
2022/01/27 10:56:28;;;;;;;51.68;27.27;;;;;;;-3.57;100.00;101302.77;1704108;82;21077;-92
2022/01/27 10:58:58;;;;;;;39.70;21.57;;;;;;;-3.58;100.00;101299.80;1703273;82;21101;-91
2022/01/27 11:01:30;;;;;;;40.33;22.13;;;;;;;-3.65;100.00;101297.73;1679560;85;21162;-92
2022/01/27 11:04:01;;;;;;;37.28;20.20;;;;;;;-3.65;100.00;101293.91;1709745;83;21701;-94
2022/01/27 11:06:32;;;;;;;36.10;20.45;;;;;;;-3.68;100.00;101293.47;1683858;84;21524;-92
2022/01/27 11:09:05;;;;;;;34.13;19.37;;;;;;;-3.73;100.00;101291.39;1663961;84;21112;-93
2022/01/27 11:11:31;;;;;;;40.65;21.50;;;;;;;-3.75;100.00;101289.70;1677808;83;21522;-94
2022/01/27 11:13:59;;;;;;;39.40;22.58;;;;;;;-3.74;100.00;101288.86;1708604;82;21149;-93
2022/01/27 11:16:34;;;;;;;34.55;20.08;;;;;;;-3.70;100.00;101287.56;1679224;83;21010;-94
2022/01/27 11:19:13;;;;;;;38.17;22.75;;;;;;;-3.56;100.00;101281.09;1660540;85;21722;-94
2022/01/27 11:21:37;;;;;;;35.55;20.00;;;;;;;-3.43;100.00;101280.60;1676739;83;21538;-94
2022/01/27 11:24:07;;;;;;;37.25;20.82;;;;;;;-3.39;100.00;101284.84;1704600;83;21105;-93
2022/01/27 11:26:40;;;;;;;32.65;18.05;;;;;;;-3.45;100.00;101280.20;1669955;84;21119;-91
2022/01/27 11:29:08;;;;;;;35.05;18.48;;;;;;;-3.49;100.00;101281.92;1708917;82;21073;-94
2022/01/27 11:32:06;;;;;;;35.35;18.75;;;;;;;-3.47;100.00;101286.99;1678951;85;21065;-92
2022/01/27 11:34:50;;;;;;;38.20;20.57;;;;;;;-3.49;100.00;101280.23;1683898;83;21037;-94
2022/01/27 11:37:36;;;;;;;38.45;20.32;;;;;;;-3.49;100.00;101278.96;1683349;83;21007;-93
2022/01/27 11:40:11;;;;;;;32.60;16.48;;;;;;;-3.49;100.00;101279.38;1683805;83;21654;-93
2022/01/27 11:43:00;;;;;;;32.30;18.30;;;;;;;-3.50;100.00;101277.27;1691378;83;21089;-94